sensor_id;sensor_type;location;lat;lon;timestamp;P1;durP1;ratioP1;P2;durP2;ratioP2
17812;SDS011;9030;50.792;8.320;2024-03-22T00:00:16;28.53;;;22.97;;
17812;SDS011;9030;50.792;8.320;2024-03-22T00:02:42;26.17;;;22.77;;
17812;SDS011;9030;50.792;8.320;2024-03-22T00:05:08;25.43;;;22.57;;
17812;SDS011;9030;50.792;8.320;2024-03-22T00:07:35;26.57;;;21.20;;
17812;SDS011;9030;50.792;8.320;2024-03-22T00:10:02;25.03;;;22.30;;
17812;SDS011;9030;50.792;8.320;2024-03-22T00:12:28;28.20;;;24.03;;
17812;SDS011;9030;50.792;8.320;2024-03-22T00:14:54;28.13;;;23.87;;
17812;SDS011;9030;50.792;8.320;2024-03-22T00:17:22;31.10;;;26.70;;
17812;SDS011;9030;50.792;8.320;2024-03-22T00:19:48;29.93;;;25.63;;
17812;SDS011;9030;50.792;8.320;2024-03-22T00:22:15;31.60;;;26.90;;
17812;SDS011;9030;50.792;8.320;2024-03-22T00:24:40;30.53;;;27.17;;
17812;SDS011;9030;50.792;8.320;2024-03-22T00:27:07;29.00;;;25.23;;
17812;SDS011;9030;50.792;8.320;2024-03-22T00:29:33;29.33;;;24.23;;
17812;SDS011;9030;50.792;8.320;2024-03-22T00:31:59;30.37;;;24.43;;
17812;SDS011;9030;50.792;8.320;2024-03-22T00:34:26;30.33;;;25.03;;
17812;SDS011;9030;50.792;8.320;2024-03-22T00:36:53;32.23;;;27.70;;
17812;SDS011;9030;50.792;8.320;2024-03-22T00:39:19;31.17;;;26.00;;
17812;SDS011;9030;50.792;8.320;2024-03-22T00:41:45;35.50;;;30.20;;
17812;SDS011;9030;50.792;8.320;2024-03-22T00:44:11;32.20;;;28.87;;
17812;SDS011;9030;50.792;8.320;2024-03-22T00:46:38;34.70;;;29.07;;
17812;SDS011;9030;50.792;8.320;2024-03-22T00:49:03;34.57;;;28.07;;
17812;SDS011;9030;50.792;8.320;2024-03-22T00:51:31;34.63;;;30.17;;
17812;SDS011;9030;50.792;8.320;2024-03-22T00:53:57;34.87;;;26.50;;
17812;SDS011;9030;50.792;8.320;2024-03-22T00:56:24;35.30;;;29.27;;
17812;SDS011;9030;50.792;8.320;2024-03-22T00:58:49;34.27;;;30.20;;
17812;SDS011;9030;50.792;8.320;2024-03-22T01:01:17;37.60;;;31.13;;
17812;SDS011;9030;50.792;8.320;2024-03-22T01:03:43;37.47;;;33.47;;
17812;SDS011;9030;50.792;8.320;2024-03-22T01:06:09;39.27;;;33.43;;
17812;SDS011;9030;50.792;8.320;2024-03-22T01:08:37;45.10;;;35.83;;
17812;SDS011;9030;50.792;8.320;2024-03-22T01:11:03;40.37;;;34.30;;
17812;SDS011;9030;50.792;8.320;2024-03-22T01:13:30;43.23;;;36.13;;
17812;SDS011;9030;50.792;8.320;2024-03-22T01:15:55;39.33;;;32.70;;
17812;SDS011;9030;50.792;8.320;2024-03-22T01:18:22;40.87;;;32.87;;
17812;SDS011;9030;50.792;8.320;2024-03-22T01:20:48;39.90;;;34.10;;
17812;SDS011;9030;50.792;8.320;2024-03-22T01:23:14;37.57;;;31.43;;
17812;SDS011;9030;50.792;8.320;2024-03-22T01:25:41;39.13;;;33.13;;
17812;SDS011;9030;50.792;8.320;2024-03-22T01:28:08;36.53;;;32.63;;
17812;SDS011;9030;50.792;8.320;2024-03-22T01:30:34;39.33;;;32.60;;
17812;SDS011;9030;50.792;8.320;2024-03-22T01:33:01;36.87;;;32.40;;
17812;SDS011;9030;50.792;8.320;2024-03-22T01:35:28;40.87;;;33.53;;
17812;SDS011;9030;50.792;8.320;2024-03-22T01:37:54;40.00;;;32.10;;
17812;SDS011;9030;50.792;8.320;2024-03-22T01:40:20;37.00;;;31.53;;
17812;SDS011;9030;50.792;8.320;2024-03-22T01:42:47;39.10;;;31.83;;
17812;SDS011;9030;50.792;8.320;2024-03-22T01:45:18;36.43;;;31.43;;
17812;SDS011;9030;50.792;8.320;2024-03-22T01:47:45;42.37;;;32.77;;
17812;SDS011;9030;50.792;8.320;2024-03-22T01:50:11;41.93;;;34.00;;
17812;SDS011;9030;50.792;8.320;2024-03-22T01:52:37;42.03;;;32.27;;
17812;SDS011;9030;50.792;8.320;2024-03-22T01:55:05;43.27;;;34.33;;
17812;SDS011;9030;50.792;8.320;2024-03-22T01:57:32;47.93;;;37.00;;
17812;SDS011;9030;50.792;8.320;2024-03-22T02:00:01;44.80;;;36.17;;
17812;SDS011;9030;50.792;8.320;2024-03-22T02:02:28;44.33;;;37.60;;
17812;SDS011;9030;50.792;8.320;2024-03-22T02:04:54;46.97;;;35.50;;
17812;SDS011;9030;50.792;8.320;2024-03-22T02:07:22;47.63;;;39.70;;
17812;SDS011;9030;50.792;8.320;2024-03-22T02:09:49;49.83;;;39.77;;
17812;SDS011;9030;50.792;8.320;2024-03-22T02:12:14;51.43;;;42.90;;
17812;SDS011;9030;50.792;8.320;2024-03-22T02:14:42;55.67;;;42.93;;
17812;SDS011;9030;50.792;8.320;2024-03-22T02:17:09;47.67;;;38.23;;
17812;SDS011;9030;50.792;8.320;2024-03-22T02:19:35;48.90;;;38.13;;
17812;SDS011;9030;50.792;8.320;2024-03-22T02:22:01;49.73;;;37.97;;
17812;SDS011;9030;50.792;8.320;2024-03-22T02:24:29;50.30;;;39.83;;
17812;SDS011;9030;50.792;8.320;2024-03-22T02:26:55;51.90;;;39.97;;
17812;SDS011;9030;50.792;8.320;2024-03-22T02:29:21;55.47;;;41.37;;
17812;SDS011;9030;50.792;8.320;2024-03-22T02:31:47;51.37;;;41.67;;
17812;SDS011;9030;50.792;8.320;2024-03-22T02:34:14;57.60;;;42.67;;
17812;SDS011;9030;50.792;8.320;2024-03-22T02:36:40;56.57;;;39.60;;
17812;SDS011;9030;50.792;8.320;2024-03-22T02:39:06;56.47;;;40.83;;
17812;SDS011;9030;50.792;8.320;2024-03-22T02:41:33;61.90;;;44.23;;
17812;SDS011;9030;50.792;8.320;2024-03-22T02:44:00;59.77;;;44.67;;
17812;SDS011;9030;50.792;8.320;2024-03-22T02:46:26;57.70;;;41.73;;
17812;SDS011;9030;50.792;8.320;2024-03-22T02:48:53;53.03;;;40.47;;
17812;SDS011;9030;50.792;8.320;2024-03-22T02:51:18;44.33;;;36.50;;
17812;SDS011;9030;50.792;8.320;2024-03-22T02:53:46;50.13;;;36.97;;
17812;SDS011;9030;50.792;8.320;2024-03-22T02:56:11;54.47;;;40.17;;
17812;SDS011;9030;50.792;8.320;2024-03-22T02:58:39;53.60;;;39.77;;
17812;SDS011;9030;50.792;8.320;2024-03-22T03:01:05;50.77;;;38.97;;
17812;SDS011;9030;50.792;8.320;2024-03-22T03:03:32;50.30;;;36.20;;
17812;SDS011;9030;50.792;8.320;2024-03-22T03:05:57;50.13;;;37.73;;
17812;SDS011;9030;50.792;8.320;2024-03-22T03:08:24;52.23;;;38.80;;
17812;SDS011;9030;50.792;8.320;2024-03-22T03:10:50;52.70;;;40.87;;
17812;SDS011;9030;50.792;8.320;2024-03-22T03:13:16;56.30;;;39.13;;
17812;SDS011;9030;50.792;8.320;2024-03-22T03:15:43;52.00;;;40.47;;
17812;SDS011;9030;50.792;8.320;2024-03-22T03:18:10;58.77;;;43.67;;
17812;SDS011;9030;50.792;8.320;2024-03-22T03:20:36;48.33;;;38.10;;
17812;SDS011;9030;50.792;8.320;2024-03-22T03:23:03;52.73;;;39.17;;
17812;SDS011;9030;50.792;8.320;2024-03-22T03:25:29;51.10;;;39.53;;
17812;SDS011;9030;50.792;8.320;2024-03-22T03:27:55;56.27;;;41.73;;
17812;SDS011;9030;50.792;8.320;2024-03-22T03:30:21;58.47;;;43.43;;
17812;SDS011;9030;50.792;8.320;2024-03-22T03:32:49;54.93;;;42.83;;
17812;SDS011;9030;50.792;8.320;2024-03-22T03:35:15;58.83;;;42.10;;
17812;SDS011;9030;50.792;8.320;2024-03-22T03:37:41;55.23;;;43.60;;
17812;SDS011;9030;50.792;8.320;2024-03-22T03:40:08;40.67;;;34.90;;
17812;SDS011;9030;50.792;8.320;2024-03-22T03:42:34;44.57;;;36.17;;
17812;SDS011;9030;50.792;8.320;2024-03-22T03:45:00;45.87;;;35.77;;
17812;SDS011;9030;50.792;8.320;2024-03-22T03:47:27;37.50;;;32.97;;
17812;SDS011;9030;50.792;8.320;2024-03-22T03:49:54;37.53;;;32.80;;
17812;SDS011;9030;50.792;8.320;2024-03-22T03:52:20;37.83;;;32.57;;
17812;SDS011;9030;50.792;8.320;2024-03-22T03:54:46;38.40;;;31.93;;
17812;SDS011;9030;50.792;8.320;2024-03-22T03:57:12;36.83;;;30.03;;
17812;SDS011;9030;50.792;8.320;2024-03-22T03:59:38;38.67;;;32.73;;
17812;SDS011;9030;50.792;8.320;2024-03-22T04:02:05;37.27;;;31.03;;
17812;SDS011;9030;50.792;8.320;2024-03-22T04:04:30;33.23;;;28.70;;
17812;SDS011;9030;50.792;8.320;2024-03-22T04:06:58;33.80;;;28.77;;
17812;SDS011;9030;50.792;8.320;2024-03-22T04:09:24;36.73;;;30.10;;
17812;SDS011;9030;50.792;8.320;2024-03-22T04:11:51;52.23;;;46.57;;
17812;SDS011;9030;50.792;8.320;2024-03-22T04:14:19;48.60;;;39.63;;
17812;SDS011;9030;50.792;8.320;2024-03-22T04:17:15;42.63;;;35.00;;
17812;SDS011;9030;50.792;8.320;2024-03-22T04:19:42;46.60;;;38.80;;
17812;SDS011;9030;50.792;8.320;2024-03-22T04:22:09;49.20;;;38.07;;
17812;SDS011;9030;50.792;8.320;2024-03-22T04:24:35;38.83;;;34.33;;
17812;SDS011;9030;50.792;8.320;2024-03-22T04:27:01;42.23;;;34.27;;
17812;SDS011;9030;50.792;8.320;2024-03-22T04:29:28;43.70;;;34.20;;
17812;SDS011;9030;50.792;8.320;2024-03-22T04:31:53;35.33;;;30.97;;
17812;SDS011;9030;50.792;8.320;2024-03-22T04:34:20;40.33;;;35.27;;
17812;SDS011;9030;50.792;8.320;2024-03-22T04:36:45;39.40;;;33.13;;
17812;SDS011;9030;50.792;8.320;2024-03-22T04:39:13;48.83;;;38.00;;
17812;SDS011;9030;50.792;8.320;2024-03-22T04:41:41;48.03;;;37.60;;
17812;SDS011;9030;50.792;8.320;2024-03-22T04:44:08;47.93;;;36.73;;
17812;SDS011;9030;50.792;8.320;2024-03-22T04:46:34;51.93;;;39.30;;
17812;SDS011;9030;50.792;8.320;2024-03-22T04:49:00;53.70;;;41.10;;
17812;SDS011;9030;50.792;8.320;2024-03-22T04:51:27;51.90;;;37.37;;
17812;SDS011;9030;50.792;8.320;2024-03-22T04:53:52;48.33;;;36.23;;
17812;SDS011;9030;50.792;8.320;2024-03-22T04:56:20;47.53;;;36.00;;
17812;SDS011;9030;50.792;8.320;2024-03-22T04:58:46;47.40;;;36.70;;
17812;SDS011;9030;50.792;8.320;2024-03-22T05:01:12;42.00;;;36.10;;
17812;SDS011;9030;50.792;8.320;2024-03-22T05:03:39;42.30;;;34.47;;
17812;SDS011;9030;50.792;8.320;2024-03-22T05:06:06;47.63;;;36.97;;
17812;SDS011;9030;50.792;8.320;2024-03-22T05:08:32;51.20;;;41.47;;
17812;SDS011;9030;50.792;8.320;2024-03-22T05:10:58;51.43;;;39.53;;
17812;SDS011;9030;50.792;8.320;2024-03-22T05:13:25;50.20;;;37.30;;
17812;SDS011;9030;50.792;8.320;2024-03-22T05:15:52;50.10;;;35.93;;
17812;SDS011;9030;50.792;8.320;2024-03-22T05:18:18;42.47;;;34.73;;
17812;SDS011;9030;50.792;8.320;2024-03-22T05:20:45;48.57;;;37.93;;
17812;SDS011;9030;50.792;8.320;2024-03-22T05:23:11;44.17;;;34.80;;
17812;SDS011;9030;50.792;8.320;2024-03-22T05:25:37;41.13;;;33.97;;
17812;SDS011;9030;50.792;8.320;2024-03-22T05:28:04;43.30;;;35.50;;
17812;SDS011;9030;50.792;8.320;2024-03-22T05:30:31;50.57;;;36.50;;
17812;SDS011;9030;50.792;8.320;2024-03-22T05:32:58;46.57;;;36.33;;
17812;SDS011;9030;50.792;8.320;2024-03-22T05:35:23;46.07;;;37.17;;
17812;SDS011;9030;50.792;8.320;2024-03-22T05:37:50;44.73;;;34.43;;
17812;SDS011;9030;50.792;8.320;2024-03-22T05:40:16;45.00;;;36.03;;
17812;SDS011;9030;50.792;8.320;2024-03-22T05:42:42;40.03;;;33.97;;
17812;SDS011;9030;50.792;8.320;2024-03-22T05:45:09;51.77;;;34.50;;
17812;SDS011;9030;50.792;8.320;2024-03-22T05:47:37;41.17;;;32.17;;
17812;SDS011;9030;50.792;8.320;2024-03-22T05:50:03;38.83;;;33.50;;
17812;SDS011;9030;50.792;8.320;2024-03-22T05:52:32;47.43;;;35.80;;
17812;SDS011;9030;50.792;8.320;2024-03-22T05:54:58;39.33;;;32.47;;
17812;SDS011;9030;50.792;8.320;2024-03-22T05:57:25;46.80;;;34.10;;
17812;SDS011;9030;50.792;8.320;2024-03-22T05:59:51;40.37;;;32.00;;
17812;SDS011;9030;50.792;8.320;2024-03-22T06:02:18;42.43;;;31.83;;
17812;SDS011;9030;50.792;8.320;2024-03-22T06:04:45;43.20;;;31.03;;
17812;SDS011;9030;50.792;8.320;2024-03-22T06:07:12;41.73;;;33.33;;
17812;SDS011;9030;50.792;8.320;2024-03-22T06:09:39;43.03;;;30.00;;
17812;SDS011;9030;50.792;8.320;2024-03-22T06:12:11;38.30;;;29.47;;
17812;SDS011;9030;50.792;8.320;2024-03-22T06:14:37;39.30;;;29.27;;
17812;SDS011;9030;50.792;8.320;2024-03-22T06:17:04;40.10;;;29.47;;
17812;SDS011;9030;50.792;8.320;2024-03-22T06:19:30;38.03;;;31.23;;
17812;SDS011;9030;50.792;8.320;2024-03-22T06:21:57;37.13;;;29.67;;
17812;SDS011;9030;50.792;8.320;2024-03-22T06:24:23;37.13;;;28.77;;
17812;SDS011;9030;50.792;8.320;2024-03-22T06:26:50;34.30;;;28.40;;
17812;SDS011;9030;50.792;8.320;2024-03-22T06:29:15;35.87;;;27.33;;
17812;SDS011;9030;50.792;8.320;2024-03-22T06:31:42;37.27;;;28.37;;
17812;SDS011;9030;50.792;8.320;2024-03-22T06:34:08;36.17;;;26.03;;
17812;SDS011;9030;50.792;8.320;2024-03-22T06:36:34;36.60;;;27.50;;
17812;SDS011;9030;50.792;8.320;2024-03-22T06:39:02;31.20;;;25.10;;
17812;SDS011;9030;50.792;8.320;2024-03-22T06:41:31;37.70;;;27.83;;
17812;SDS011;9030;50.792;8.320;2024-03-22T06:43:57;30.77;;;25.67;;
17812;SDS011;9030;50.792;8.320;2024-03-22T06:46:23;39.17;;;29.80;;
17812;SDS011;9030;50.792;8.320;2024-03-22T06:48:49;37.87;;;30.87;;
17812;SDS011;9030;50.792;8.320;2024-03-22T06:51:16;35.33;;;31.00;;
17812;SDS011;9030;50.792;8.320;2024-03-22T06:53:42;40.00;;;30.80;;
17812;SDS011;9030;50.792;8.320;2024-03-22T06:56:11;34.20;;;30.50;;
17812;SDS011;9030;50.792;8.320;2024-03-22T06:58:37;33.90;;;29.70;;
17812;SDS011;9030;50.792;8.320;2024-03-22T07:01:04;37.93;;;33.27;;
17812;SDS011;9030;50.792;8.320;2024-03-22T07:03:30;38.20;;;34.17;;
17812;SDS011;9030;50.792;8.320;2024-03-22T07:05:56;37.63;;;33.40;;
17812;SDS011;9030;50.792;8.320;2024-03-22T07:08:22;40.70;;;30.03;;
17812;SDS011;9030;50.792;8.320;2024-03-22T07:10:49;35.77;;;30.63;;
17812;SDS011;9030;50.792;8.320;2024-03-22T07:13:16;30.73;;;25.83;;
17812;SDS011;9030;50.792;8.320;2024-03-22T07:15:43;36.87;;;29.57;;
17812;SDS011;9030;50.792;8.320;2024-03-22T07:18:10;34.50;;;29.07;;
17812;SDS011;9030;50.792;8.320;2024-03-22T07:20:36;35.70;;;30.27;;
17812;SDS011;9030;50.792;8.320;2024-03-22T07:23:02;37.30;;;28.83;;
17812;SDS011;9030;50.792;8.320;2024-03-22T07:25:29;37.70;;;29.37;;
17812;SDS011;9030;50.792;8.320;2024-03-22T07:27:55;36.20;;;29.13;;
17812;SDS011;9030;50.792;8.320;2024-03-22T07:30:22;36.60;;;29.60;;
17812;SDS011;9030;50.792;8.320;2024-03-22T07:32:48;34.00;;;29.27;;
17812;SDS011;9030;50.792;8.320;2024-03-22T07:35:15;34.30;;;29.40;;
17812;SDS011;9030;50.792;8.320;2024-03-22T07:37:40;35.23;;;29.57;;
17812;SDS011;9030;50.792;8.320;2024-03-22T07:40:07;37.03;;;28.80;;
17812;SDS011;9030;50.792;8.320;2024-03-22T07:42:33;36.27;;;29.37;;
17812;SDS011;9030;50.792;8.320;2024-03-22T07:45:00;35.23;;;29.70;;
17812;SDS011;9030;50.792;8.320;2024-03-22T07:47:27;34.47;;;30.70;;
17812;SDS011;9030;50.792;8.320;2024-03-22T07:49:54;35.50;;;29.05;;
17812;SDS011;9030;50.792;8.320;2024-03-22T07:52:20;35.05;;;29.55;;
17812;SDS011;9030;50.792;8.320;2024-03-22T07:54:46;33.05;;;27.25;;
17812;SDS011;9030;50.792;8.320;2024-03-22T07:57:12;33.70;;;25.70;;
17812;SDS011;9030;50.792;8.320;2024-03-22T07:59:38;31.58;;;26.15;;
17812;SDS011;9030;50.792;8.320;2024-03-22T08:02:04;31.15;;;24.10;;
17812;SDS011;9030;50.792;8.320;2024-03-22T08:04:32;31.38;;;26.75;;
17812;SDS011;9030;50.792;8.320;2024-03-22T08:06:58;32.80;;;24.40;;
17812;SDS011;9030;50.792;8.320;2024-03-22T08:09:25;29.58;;;23.95;;
17812;SDS011;9030;50.792;8.320;2024-03-22T08:11:50;27.80;;;23.17;;
17812;SDS011;9030;50.792;8.320;2024-03-22T08:14:17;31.08;;;22.33;;
17812;SDS011;9030;50.792;8.320;2024-03-22T08:16:42;28.02;;;21.67;;
17812;SDS011;9030;50.792;8.320;2024-03-22T08:19:09;26.92;;;21.77;;
17812;SDS011;9030;50.792;8.320;2024-03-22T08:21:36;27.50;;;21.77;;
17812;SDS011;9030;50.792;8.320;2024-03-22T08:24:03;24.73;;;21.75;;
17812;SDS011;9030;50.792;8.320;2024-03-22T08:26:29;28.45;;;21.60;;
17812;SDS011;9030;50.792;8.320;2024-03-22T08:28:55;24.75;;;20.75;;
17812;SDS011;9030;50.792;8.320;2024-03-22T08:31:21;26.00;;;20.98;;
17812;SDS011;9030;50.792;8.320;2024-03-22T08:33:50;28.60;;;19.95;;
17812;SDS011;9030;50.792;8.320;2024-03-22T08:36:16;22.77;;;20.38;;
17812;SDS011;9030;50.792;8.320;2024-03-22T08:38:44;24.27;;;19.08;;
17812;SDS011;9030;50.792;8.320;2024-03-22T08:41:10;25.55;;;19.52;;
17812;SDS011;9030;50.792;8.320;2024-03-22T08:43:37;22.45;;;17.70;;
17812;SDS011;9030;50.792;8.320;2024-03-22T08:46:02;21.52;;;18.40;;
17812;SDS011;9030;50.792;8.320;2024-03-22T08:48:29;20.35;;;16.65;;
17812;SDS011;9030;50.792;8.320;2024-03-22T08:50:55;23.58;;;16.70;;
17812;SDS011;9030;50.792;8.320;2024-03-22T08:53:21;22.52;;;17.23;;
17812;SDS011;9030;50.792;8.320;2024-03-22T08:55:48;22.60;;;17.08;;
17812;SDS011;9030;50.792;8.320;2024-03-22T08:58:15;22.75;;;16.83;;
17812;SDS011;9030;50.792;8.320;2024-03-22T09:00:42;21.10;;;16.48;;
17812;SDS011;9030;50.792;8.320;2024-03-22T09:03:09;20.08;;;15.85;;
17812;SDS011;9030;50.792;8.320;2024-03-22T09:05:35;20.40;;;15.82;;
17812;SDS011;9030;50.792;8.320;2024-03-22T09:08:01;23.83;;;18.73;;
17812;SDS011;9030;50.792;8.320;2024-03-22T09:10:28;21.98;;;17.77;;
17812;SDS011;9030;50.792;8.320;2024-03-22T09:12:56;23.45;;;18.13;;
17812;SDS011;9030;50.792;8.320;2024-03-22T09:15:22;22.33;;;20.02;;
17812;SDS011;9030;50.792;8.320;2024-03-22T09:17:49;22.25;;;19.00;;
17812;SDS011;9030;50.792;8.320;2024-03-22T09:20:16;20.15;;;18.02;;
17812;SDS011;9030;50.792;8.320;2024-03-22T09:22:43;22.88;;;17.48;;
17812;SDS011;9030;50.792;8.320;2024-03-22T09:25:08;22.38;;;16.75;;
17812;SDS011;9030;50.792;8.320;2024-03-22T09:27:35;24.85;;;17.60;;
17812;SDS011;9030;50.792;8.320;2024-03-22T09:30:02;25.20;;;18.80;;
17812;SDS011;9030;50.792;8.320;2024-03-22T09:32:29;21.65;;;17.55;;
17812;SDS011;9030;50.792;8.320;2024-03-22T09:34:54;24.52;;;19.55;;
17812;SDS011;9030;50.792;8.320;2024-03-22T09:37:21;19.83;;;16.27;;
17812;SDS011;9030;50.792;8.320;2024-03-22T09:39:47;20.90;;;17.10;;
17812;SDS011;9030;50.792;8.320;2024-03-22T09:42:15;19.20;;;15.32;;
17812;SDS011;9030;50.792;8.320;2024-03-22T09:44:42;20.23;;;15.15;;
17812;SDS011;9030;50.792;8.320;2024-03-22T09:47:15;19.83;;;17.15;;
17812;SDS011;9030;50.792;8.320;2024-03-22T09:49:41;22.27;;;18.63;;
17812;SDS011;9030;50.792;8.320;2024-03-22T09:52:11;20.75;;;16.30;;
17812;SDS011;9030;50.792;8.320;2024-03-22T09:54:38;20.52;;;16.77;;
17812;SDS011;9030;50.792;8.320;2024-03-22T09:57:04;21.42;;;17.05;;
17812;SDS011;9030;50.792;8.320;2024-03-22T09:59:32;20.73;;;16.60;;
17812;SDS011;9030;50.792;8.320;2024-03-22T10:01:58;23.38;;;17.13;;
17812;SDS011;9030;50.792;8.320;2024-03-22T10:04:27;22.98;;;16.98;;
17812;SDS011;9030;50.792;8.320;2024-03-22T10:06:54;22.95;;;15.18;;
17812;SDS011;9030;50.792;8.320;2024-03-22T10:09:19;18.90;;;15.68;;
17812;SDS011;9030;50.792;8.320;2024-03-22T10:11:55;21.88;;;15.30;;
17812;SDS011;9030;50.792;8.320;2024-03-22T10:14:20;20.25;;;14.18;;
17812;SDS011;9030;50.792;8.320;2024-03-22T10:16:47;20.67;;;14.77;;
17812;SDS011;9030;50.792;8.320;2024-03-22T10:19:12;23.33;;;15.88;;
17812;SDS011;9030;50.792;8.320;2024-03-22T10:21:40;21.33;;;14.35;;
17812;SDS011;9030;50.792;8.320;2024-03-22T10:24:06;18.20;;;14.35;;
17812;SDS011;9030;50.792;8.320;2024-03-22T10:26:33;23.45;;;15.90;;
17812;SDS011;9030;50.792;8.320;2024-03-22T10:28:59;18.52;;;14.38;;
17812;SDS011;9030;50.792;8.320;2024-03-22T10:31:25;20.05;;;13.10;;
17812;SDS011;9030;50.792;8.320;2024-03-22T10:33:52;19.77;;;14.60;;
17812;SDS011;9030;50.792;8.320;2024-03-22T10:36:20;20.05;;;14.95;;
17812;SDS011;9030;50.792;8.320;2024-03-22T10:38:47;21.00;;;14.85;;
17812;SDS011;9030;50.792;8.320;2024-03-22T10:41:16;19.65;;;14.80;;
17812;SDS011;9030;50.792;8.320;2024-03-22T10:43:42;18.13;;;13.88;;
17812;SDS011;9030;50.792;8.320;2024-03-22T10:46:08;18.40;;;14.05;;
17812;SDS011;9030;50.792;8.320;2024-03-22T10:48:35;17.77;;;15.10;;
17812;SDS011;9030;50.792;8.320;2024-03-22T10:51:02;17.73;;;12.57;;
17812;SDS011;9030;50.792;8.320;2024-03-22T10:53:30;19.05;;;14.00;;
17812;SDS011;9030;50.792;8.320;2024-03-22T10:55:59;19.08;;;13.20;;
17812;SDS011;9030;50.792;8.320;2024-03-22T10:58:26;20.40;;;15.35;;
17812;SDS011;9030;50.792;8.320;2024-03-22T11:00:53;21.05;;;15.60;;
17812;SDS011;9030;50.792;8.320;2024-03-22T11:03:20;19.13;;;14.32;;
17812;SDS011;9030;50.792;8.320;2024-03-22T11:05:48;18.70;;;13.60;;
17812;SDS011;9030;50.792;8.320;2024-03-22T11:08:22;17.70;;;14.27;;
17812;SDS011;9030;50.792;8.320;2024-03-22T11:10:50;18.38;;;12.77;;
17812;SDS011;9030;50.792;8.320;2024-03-22T11:13:17;18.10;;;13.13;;
17812;SDS011;9030;50.792;8.320;2024-03-22T11:15:44;18.92;;;12.55;;
17812;SDS011;9030;50.792;8.320;2024-03-22T11:18:13;18.05;;;13.43;;
17812;SDS011;9030;50.792;8.320;2024-03-22T11:20:40;16.70;;;12.50;;
17812;SDS011;9030;50.792;8.320;2024-03-22T11:23:07;19.83;;;14.98;;
17812;SDS011;9030;50.792;8.320;2024-03-22T11:25:34;19.23;;;13.45;;
17812;SDS011;9030;50.792;8.320;2024-03-22T11:28:01;21.02;;;15.70;;
17812;SDS011;9030;50.792;8.320;2024-03-22T11:30:29;18.95;;;15.38;;
17812;SDS011;9030;50.792;8.320;2024-03-22T11:32:56;19.20;;;16.00;;
17812;SDS011;9030;50.792;8.320;2024-03-22T11:35:22;20.15;;;13.40;;
17812;SDS011;9030;50.792;8.320;2024-03-22T11:37:49;21.42;;;16.52;;
17812;SDS011;9030;50.792;8.320;2024-03-22T11:40:16;20.77;;;14.18;;
17812;SDS011;9030;50.792;8.320;2024-03-22T11:42:42;19.90;;;15.02;;
17812;SDS011;9030;50.792;8.320;2024-03-22T11:45:12;19.88;;;14.82;;
17812;SDS011;9030;50.792;8.320;2024-03-22T11:47:42;18.38;;;12.18;;
17812;SDS011;9030;50.792;8.320;2024-03-22T11:50:09;19.08;;;14.30;;
17812;SDS011;9030;50.792;8.320;2024-03-22T11:52:38;16.90;;;11.27;;
17812;SDS011;9030;50.792;8.320;2024-03-22T11:55:06;17.00;;;11.77;;
17812;SDS011;9030;50.792;8.320;2024-03-22T11:57:32;17.35;;;13.00;;
17812;SDS011;9030;50.792;8.320;2024-03-22T11:59:59;17.52;;;12.02;;
17812;SDS011;9030;50.792;8.320;2024-03-22T12:02:26;16.80;;;10.77;;
17812;SDS011;9030;50.792;8.320;2024-03-22T12:04:54;16.42;;;12.80;;
17812;SDS011;9030;50.792;8.320;2024-03-22T12:07:20;16.98;;;13.45;;
17812;SDS011;9030;50.792;8.320;2024-03-22T12:09:46;18.45;;;13.75;;
17812;SDS011;9030;50.792;8.320;2024-03-22T12:12:13;20.73;;;12.88;;
17812;SDS011;9030;50.792;8.320;2024-03-22T12:14:39;17.80;;;12.68;;
17812;SDS011;9030;50.792;8.320;2024-03-22T12:17:06;16.55;;;11.93;;
17812;SDS011;9030;50.792;8.320;2024-03-22T12:19:32;17.20;;;12.25;;
17812;SDS011;9030;50.792;8.320;2024-03-22T12:22:00;20.60;;;11.00;;
17812;SDS011;9030;50.792;8.320;2024-03-22T12:24:26;15.32;;;10.80;;
17812;SDS011;9030;50.792;8.320;2024-03-22T12:26:53;16.67;;;12.18;;
17812;SDS011;9030;50.792;8.320;2024-03-22T12:29:19;17.50;;;11.35;;
17812;SDS011;9030;50.792;8.320;2024-03-22T12:31:46;18.35;;;11.38;;
17812;SDS011;9030;50.792;8.320;2024-03-22T12:34:12;17.90;;;10.50;;
17812;SDS011;9030;50.792;8.320;2024-03-22T12:36:40;16.27;;;11.05;;
17812;SDS011;9030;50.792;8.320;2024-03-22T12:39:07;16.25;;;11.30;;
17812;SDS011;9030;50.792;8.320;2024-03-22T12:41:33;15.55;;;9.95;;
17812;SDS011;9030;50.792;8.320;2024-03-22T12:43:59;19.13;;;12.07;;
17812;SDS011;9030;50.792;8.320;2024-03-22T12:46:26;16.80;;;11.30;;
17812;SDS011;9030;50.792;8.320;2024-03-22T12:48:52;16.45;;;11.35;;
17812;SDS011;9030;50.792;8.320;2024-03-22T12:51:19;16.88;;;11.40;;
17812;SDS011;9030;50.792;8.320;2024-03-22T12:53:45;18.05;;;12.13;;
17812;SDS011;9030;50.792;8.320;2024-03-22T12:56:13;18.90;;;12.10;;
17812;SDS011;9030;50.792;8.320;2024-03-22T12:58:39;18.92;;;13.05;;
17812;SDS011;9030;50.792;8.320;2024-03-22T13:01:06;18.23;;;10.82;;
17812;SDS011;9030;50.792;8.320;2024-03-22T13:03:35;18.60;;;12.57;;
17812;SDS011;9030;50.792;8.320;2024-03-22T13:06:03;16.17;;;12.18;;
17812;SDS011;9030;50.792;8.320;2024-03-22T13:08:30;18.33;;;12.25;;
17812;SDS011;9030;50.792;8.320;2024-03-22T13:10:56;19.13;;;12.10;;
17812;SDS011;9030;50.792;8.320;2024-03-22T13:13:23;19.60;;;11.68;;
17812;SDS011;9030;50.792;8.320;2024-03-22T13:15:50;14.70;;;10.52;;
17812;SDS011;9030;50.792;8.320;2024-03-22T13:18:16;17.55;;;10.38;;
17812;SDS011;9030;50.792;8.320;2024-03-22T13:20:42;15.55;;;10.50;;
17812;SDS011;9030;50.792;8.320;2024-03-22T13:23:08;16.58;;;10.63;;
17812;SDS011;9030;50.792;8.320;2024-03-22T13:25:36;14.73;;;9.32;;
17812;SDS011;9030;50.792;8.320;2024-03-22T13:28:02;15.65;;;8.90;;
17812;SDS011;9030;50.792;8.320;2024-03-22T13:30:31;15.60;;;10.52;;
17812;SDS011;9030;50.792;8.320;2024-03-22T13:32:57;14.48;;;9.02;;
17812;SDS011;9030;50.792;8.320;2024-03-22T13:35:24;14.75;;;9.70;;
17812;SDS011;9030;50.792;8.320;2024-03-22T13:37:49;12.98;;;9.70;;
17812;SDS011;9030;50.792;8.320;2024-03-22T13:40:16;13.98;;;9.35;;
17812;SDS011;9030;50.792;8.320;2024-03-22T13:42:42;15.50;;;9.90;;
17812;SDS011;9030;50.792;8.320;2024-03-22T13:45:09;16.23;;;9.48;;
17812;SDS011;9030;50.792;8.320;2024-03-22T13:47:36;13.52;;;8.45;;
17812;SDS011;9030;50.792;8.320;2024-03-22T13:50:05;13.38;;;7.80;;
17812;SDS011;9030;50.792;8.320;2024-03-22T13:52:33;14.02;;;8.48;;
17812;SDS011;9030;50.792;8.320;2024-03-22T13:55:00;14.95;;;7.35;;
17812;SDS011;9030;50.792;8.320;2024-03-22T13:57:26;11.60;;;7.05;;
17812;SDS011;9030;50.792;8.320;2024-03-22T13:59:52;13.10;;;6.65;;
17812;SDS011;9030;50.792;8.320;2024-03-22T14:02:19;12.23;;;6.80;;
17812;SDS011;9030;50.792;8.320;2024-03-22T14:04:47;12.85;;;6.82;;
17812;SDS011;9030;50.792;8.320;2024-03-22T14:07:12;12.85;;;7.38;;
17812;SDS011;9030;50.792;8.320;2024-03-22T14:09:39;12.90;;;7.50;;
17812;SDS011;9030;50.792;8.320;2024-03-22T14:12:06;14.27;;;7.50;;
17812;SDS011;9030;50.792;8.320;2024-03-22T14:14:33;11.93;;;7.07;;
17812;SDS011;9030;50.792;8.320;2024-03-22T14:16:59;12.38;;;6.55;;
17812;SDS011;9030;50.792;8.320;2024-03-22T14:19:25;13.25;;;7.47;;
17812;SDS011;9030;50.792;8.320;2024-03-22T14:21:52;13.95;;;7.25;;
17812;SDS011;9030;50.792;8.320;2024-03-22T14:24:19;12.45;;;7.95;;
17812;SDS011;9030;50.792;8.320;2024-03-22T14:26:44;12.35;;;6.22;;
17812;SDS011;9030;50.792;8.320;2024-03-22T14:29:11;12.00;;;6.15;;
17812;SDS011;9030;50.792;8.320;2024-03-22T14:31:37;12.38;;;6.85;;